Time;durP1;ratioP1;P1;durP2;ratioP2;P2;SDS_P1;SDS_P2;PMS_P1;PMS_P2;Temp;Humidity;BMP_temperature;BMP_pressure;BME280_temperature;BME280_humidity;BME280_pressure;Samples;Min_cycle;Max_cycle;Signal;HPM_P1;HPM_P2
2021/10/25 00:00:27;;;;;;;58.88;3.15;;;3.40;1.00;;;;;;5073052;28;20308;-65
2021/10/25 00:03:45;;;;;;;58.67;2.90;;;3.30;1.00;;;;;;5072929;28;20589;-65
2021/10/25 00:06:12;;;;;;;59.30;3.67;;;3.30;1.00;;;;;;5069127;28;20713;-68
2021/10/25 00:08:39;;;;;;;58.83;2.92;;;3.30;1.00;;;;;;5073146;28;20588;-66
2021/10/25 00:11:07;;;;;;;58.78;3.10;;;3.20;1.00;;;;;;5073048;28;20209;-66
2021/10/25 00:13:34;;;;;;;58.97;3.10;;;3.20;1.00;;;;;;5072591;28;20248;-66
2021/10/25 00:16:01;;;;;;;59.00;3.30;;;3.20;1.00;;;;;;5072567;28;20236;-67
2021/10/25 00:18:28;;;;;;;58.75;3.30;;;3.20;1.00;;;;;;5072612;28;20213;-65
2021/10/25 00:20:55;;;;;;;58.70;3.10;;;3.20;1.00;;;;;;5072546;28;20316;-66
2021/10/25 00:23:22;;;;;;;58.85;3.10;;;3.10;1.00;;;;;;5072404;28;20319;-65
2021/10/25 00:25:49;;;;;;;58.97;3.50;;;3.10;1.00;;;;;;5072250;28;20703;-65
2021/10/25 00:28:17;;;;;;;58.88;3.20;;;3.10;1.00;;;;;;5072670;28;20201;-66
2021/10/25 00:30:44;;;;;;;58.78;3.17;;;3.00;1.00;;;;;;5072532;28;20666;-66
2021/10/25 00:33:11;;;;;;;58.97;3.53;;;3.00;1.00;;;;;;5072163;28;20197;-65
2021/10/25 00:35:38;;;;;;;58.78;3.30;;;2.90;1.00;;;;;;5071872;28;20217;-65
2021/10/25 00:38:05;;;;;;;58.67;3.50;;;2.90;1.00;;;;;;5062527;28;20206;-65
2021/10/25 00:40:32;;;;;;;58.58;2.95;;;2.90;1.00;;;;;;5052360;28;20312;-67
2021/10/25 00:42:58;;;;;;;58.47;3.30;;;2.90;1.00;;;;;;5052449;28;20232;-66
2021/10/25 00:45:27;;;;;;;58.88;3.13;;;3.00;1.00;;;;;;5052424;28;20232;-66
2021/10/25 00:47:54;;;;;;;58.97;3.50;;;3.00;1.00;;;;;;5052164;28;20229;-65
2021/10/25 00:50:21;;;;;;;58.65;3.25;;;3.00;1.00;;;;;;5051938;28;20308;-66
2021/10/25 00:52:47;;;;;;;58.67;3.10;;;3.00;1.00;;;;;;5051276;28;20201;-66
2021/10/25 00:58:37;;;;;;;58.80;3.30;;;3.00;1.00;;;;;;5052328;28;20176;-65
2021/10/25 01:01:05;;;;;;;58.70;3.22;;;3.10;1.00;;;;;;5052178;28;20261;-66
2021/10/25 01:03:32;;;;;;;59.35;3.95;;;3.00;1.00;;;;;;5052115;28;20240;-66
2021/10/25 01:05:59;;;;;;;58.70;3.13;;;3.10;1.00;;;;;;5051464;28;20217;-65
2021/10/25 01:08:29;;;;;;;58.78;3.30;;;3.10;1.00;;;;;;5051540;28;20296;-65
2021/10/25 01:10:56;;;;;;;58.58;3.13;;;3.00;1.00;;;;;;5050541;28;20226;-66
2021/10/25 01:13:23;;;;;;;58.78;3.30;;;3.00;1.00;;;;;;5051689;28;20305;-66
2021/10/25 01:15:50;;;;;;;58.65;3.40;;;3.00;1.00;;;;;;5051369;28;20296;-66
2021/10/25 01:18:18;;;;;;;58.70;3.00;;;3.00;1.00;;;;;;5051958;28;20411;-65
2021/10/25 01:20:46;;;;;;;58.65;3.35;;;3.00;1.00;;;;;;5051747;28;20316;-66
2021/10/25 01:23:13;;;;;;;58.67;3.13;;;3.00;1.00;;;;;;5051566;28;20221;-66
2021/10/25 01:25:40;;;;;;;58.78;3.50;;;3.00;1.00;;;;;;5051435;28;20212;-66
2021/10/25 01:28:07;;;;;;;58.58;3.05;;;3.00;1.00;;;;;;5051847;28;20237;-65
2021/10/25 01:30:33;;;;;;;58.97;3.70;;;3.00;1.00;;;;;;5051605;28;20322;-66
2021/10/25 01:33:00;;;;;;;58.78;3.17;;;3.00;1.00;;;;;;5051682;28;20208;-65
2021/10/25 01:35:27;;;;;;;58.67;3.17;;;3.00;1.00;;;;;;5051319;28;20685;-67
2021/10/25 01:37:57;;;;;;;58.75;3.58;;;3.00;1.00;;;;;;5051545;28;20212;-65
2021/10/25 01:40:24;;;;;;;58.75;3.50;;;3.00;1.00;;;;;;5051840;28;20233;-66
2021/10/25 01:42:51;;;;;;;59.15;3.83;;;3.00;1.00;;;;;;5064455;28;20251;-65
2021/10/25 01:45:18;;;;;;;59.15;4.03;;;3.00;1.00;;;;;;5071516;28;20211;-67
2021/10/25 01:47:44;;;;;;;58.65;3.20;;;3.00;1.00;;;;;;5071373;28;20201;-65
2021/10/25 01:50:11;;;;;;;58.67;3.30;;;2.90;1.00;;;;;;5071353;28;20224;-65
2021/10/25 01:52:38;;;;;;;58.83;3.28;;;2.90;1.00;;;;;;5050088;28;20695;-65
2021/10/25 01:55:08;;;;;;;58.65;3.20;;;2.90;1.00;;;;;;5051643;28;20392;-66
2021/10/25 01:57:35;;;;;;;58.58;3.10;;;3.00;1.00;;;;;;5051380;28;20210;-65
2021/10/25 02:00:03;;;;;;;58.65;3.35;;;3.00;1.00;;;;;;5051509;28;20316;-66
2021/10/25 02:02:30;;;;;;;61.05;3.65;;;3.00;1.00;;;;;;5051395;28;20314;-66
2021/10/25 02:04:58;;;;;;;59.00;3.70;;;2.90;1.00;;;;;;5054082;28;20244;-65
2021/10/25 02:07:25;;;;;;;58.60;2.97;;;2.90;1.00;;;;;;5054886;28;20267;-65
2021/10/25 02:09:51;;;;;;;58.53;3.20;;;2.90;1.00;;;;;;5055418;28;20221;-66
2021/10/25 02:12:20;;;;;;;58.55;3.40;;;2.90;1.00;;;;;;5055307;28;20576;-66
2021/10/25 02:14:47;;;;;;;60.10;4.18;;;2.90;1.00;;;;;;5070917;28;20216;-66
2021/10/25 02:17:14;;;;;;;58.60;3.20;;;2.80;1.00;;;;;;5074932;28;20481;-66
2021/10/25 02:19:41;;;;;;;58.60;3.20;;;2.80;1.00;;;;;;5074869;28;20224;-65
2021/10/25 02:22:09;;;;;;;58.67;3.00;;;2.80;1.00;;;;;;5074999;28;20847;-65
2021/10/25 02:24:36;;;;;;;58.58;3.20;;;2.70;1.00;;;;;;5075241;28;20215;-65
2021/10/25 02:27:04;;;;;;;58.47;3.10;;;2.70;1.00;;;;;;5074765;28;20269;-65
2021/10/25 02:29:35;;;;;;;58.20;3.00;;;2.60;1.00;;;;;;5075404;28;20220;-66
2021/10/25 02:32:02;;;;;;;58.58;3.17;;;2.60;1.00;;;;;;5074964;28;20231;-65
2021/10/25 02:34:31;;;;;;;58.95;3.38;;;2.60;1.00;;;;;;5074733;28;20208;-66
2021/10/25 02:36:58;;;;;;;58.50;3.17;;;2.60;1.00;;;;;;5074640;28;20213;-65
2021/10/25 02:39:27;;;;;;;58.63;3.10;;;2.60;1.00;;;;;;5074752;28;20225;-66
2021/10/25 02:41:55;;;;;;;58.65;3.20;;;2.60;1.00;;;;;;5074487;28;20248;-66
2021/10/25 02:44:22;;;;;;;58.70;3.20;;;2.60;1.00;;;;;;5074370;28;20231;-65
2021/10/25 02:46:51;;;;;;;58.78;3.10;;;2.60;1.00;;;;;;5071926;28;20201;-65
2021/10/25 02:49:18;;;;;;;58.22;3.13;;;2.50;1.00;;;;;;5074424;28;20225;-66
2021/10/25 02:51:45;;;;;;;58.80;2.95;;;2.50;1.00;;;;;;5074709;28;20204;-66
2021/10/25 02:54:12;;;;;;;58.80;3.05;;;2.50;1.00;;;;;;5074589;28;20287;-65
2021/10/25 02:56:39;;;;;;;58.85;3.30;;;2.50;1.00;;;;;;5074035;28;20231;-65
2021/10/25 02:59:09;;;;;;;58.70;3.22;;;2.50;1.00;;;;;;5074313;28;20316;-66
2021/10/25 03:01:36;;;;;;;58.28;2.85;;;2.50;1.00;;;;;;5074282;28;21228;-67
2021/10/25 03:04:04;;;;;;;58.63;2.92;;;2.60;1.00;;;;;;5074414;28;20671;-65
2021/10/25 03:06:31;;;;;;;58.67;3.10;;;2.60;1.00;;;;;;5074027;28;20634;-66
2021/10/25 03:08:59;;;;;;;58.67;3.03;;;2.60;1.00;;;;;;5074216;28;20258;-65
2021/10/25 03:11:27;;;;;;;58.72;3.00;;;2.50;1.00;;;;;;5074140;28;20209;-65
2021/10/25 03:13:54;;;;;;;58.38;2.90;;;2.50;1.00;;;;;;5073805;28;20212;-66
2021/10/25 03:16:21;;;;;;;58.78;3.30;;;2.50;1.00;;;;;;5072828;28;20209;-66
2021/10/25 03:18:49;;;;;;;58.60;2.90;;;2.50;1.00;;;;;;5071526;28;20209;-66
2021/10/25 03:21:17;;;;;;;58.65;2.95;;;2.50;1.00;;;;;;5074110;28;20209;-65
2021/10/25 03:23:45;;;;;;;58.58;3.10;;;2.50;1.00;;;;;;5073870;28;20418;-65
2021/10/25 03:26:12;;;;;;;58.47;3.05;;;2.50;1.00;;;;;;5073544;28;20209;-65
2021/10/25 03:28:38;;;;;;;58.90;3.30;;;2.40;1.00;;;;;;5073660;28;20291;-66
2021/10/25 03:31:07;;;;;;;58.70;3.00;;;2.40;1.00;;;;;;5073701;28;20233;-66
2021/10/25 03:33:35;;;;;;;58.88;3.22;;;2.40;1.00;;;;;;5073688;28;20681;-65
2021/10/25 03:36:02;;;;;;;58.67;3.00;;;2.40;1.00;;;;;;5073464;28;20254;-66
2021/10/25 03:38:31;;;;;;;58.55;2.83;;;2.40;1.00;;;;;;5073672;28;20235;-66
2021/10/25 03:40:59;;;;;;;58.90;3.10;;;2.40;1.00;;;;;;5073401;28;20591;-65
2021/10/25 03:43:30;;;;;;;58.67;3.13;;;2.40;1.00;;;;;;5073816;28;20224;-65
2021/10/25 03:46:08;;;;;;;58.40;2.80;;;2.30;1.00;;;;;;5073347;28;20201;-66
2021/10/25 03:48:40;;;;;;;58.67;3.50;;;2.40;1.00;;;;;;5073243;28;20204;-66
2021/10/25 03:51:09;;;;;;;58.65;3.03;;;2.40;1.00;;;;;;5071650;28;20209;-66
2021/10/25 03:53:41;;;;;;;58.80;3.05;;;2.40;1.00;;;;;;5073645;28;20213;-65
2021/10/25 03:56:12;;;;;;;58.58;3.17;;;2.30;1.00;;;;;;5073264;28;20237;-66
2021/10/25 04:01:40;;;;;;;58.58;3.25;;;2.30;1.00;;;;;;5066088;28;20192;-65
2021/10/25 04:28:49;;;;;;;58.67;3.10;;;2.10;1.00;;;;;;5072205;28;20197;-65
2021/10/25 04:31:16;;;;;;;58.47;3.40;;;2.10;1.00;;;;;;5072452;28;20696;-66
2021/10/25 04:33:43;;;;;;;58.45;3.15;;;2.10;1.00;;;;;;5072869;28;20211;-66
2021/10/25 04:36:10;;;;;;;58.58;3.40;;;2.10;1.00;;;;;;5072360;28;20619;-66
2021/10/25 04:38:37;;;;;;;59.00;3.33;;;2.10;1.00;;;;;;5072350;28;20213;-66
2021/10/25 04:41:05;;;;;;;58.60;3.30;;;2.10;1.00;;;;;;5072278;28;20231;-66
2021/10/25 04:43:32;;;;;;;58.58;3.28;;;2.10;1.00;;;;;;5072126;28;20227;-66
2021/10/25 04:45:59;;;;;;;58.88;3.47;;;2.10;1.00;;;;;;5072335;28;20211;-66
2021/10/25 04:48:26;;;;;;;58.60;3.30;;;2.10;1.00;;;;;;5072444;28;20215;-66
2021/10/25 04:50:53;;;;;;;58.60;3.10;;;2.10;1.00;;;;;;5072272;28;20231;-67
2021/10/25 04:53:20;;;;;;;58.55;3.50;;;2.10;1.00;;;;;;5071256;28;20299;-67
2021/10/25 04:55:47;;;;;;;59.65;3.90;;;2.10;1.00;;;;;;5071683;28;20211;-67
2021/10/25 04:58:15;;;;;;;58.72;3.20;;;2.10;1.00;;;;;;5072045;28;20759;-66
2021/10/25 05:00:42;;;;;;;58.35;3.13;;;2.10;1.00;;;;;;5072191;28;20634;-66
2021/10/25 05:03:09;;;;;;;58.65;3.25;;;2.10;1.00;;;;;;5072058;28;20316;-66
2021/10/25 05:05:36;;;;;;;58.45;2.72;;;2.10;1.00;;;;;;5071578;28;20402;-66
2021/10/25 05:08:02;;;;;;;58.58;2.85;;;2.10;1.00;;;;;;5071975;28;20243;-66
2021/10/25 05:10:29;;;;;;;58.47;2.92;;;2.10;1.00;;;;;;5071829;28;20308;-68
2021/10/25 05:12:56;;;;;;;59.10;3.60;;;2.20;1.00;;;;;;5071782;28;20299;-66
2021/10/25 05:15:24;;;;;;;58.47;2.88;;;2.20;1.00;;;;;;5071636;28;20270;-67
2021/10/25 05:17:51;;;;;;;58.60;2.97;;;2.20;1.00;;;;;;5071848;28;20292;-68
2021/10/25 05:20:18;;;;;;;58.67;3.20;;;2.20;1.00;;;;;;5071871;28;20221;-66
2021/10/25 05:22:45;;;;;;;58.58;2.92;;;2.30;1.00;;;;;;5071943;28;20232;-66
2021/10/25 05:25:12;;;;;;;58.50;3.05;;;2.30;1.00;;;;;;5071564;28;20209;-67
2021/10/25 05:27:39;;;;;;;58.47;3.00;;;2.40;1.00;;;;;;5071803;28;20292;-65
2021/10/25 05:30:06;;;;;;;58.70;2.90;;;2.40;1.00;;;;;;5071690;28;20231;-64
2021/10/25 05:32:34;;;;;;;58.80;3.20;;;2.40;1.00;;;;;;5071830;28;20212;-65
2021/10/25 05:35:01;;;;;;;58.67;3.30;;;2.40;1.00;;;;;;5071677;28;20637;-65
2021/10/25 05:37:28;;;;;;;59.20;3.10;;;2.40;1.00;;;;;;5071397;28;20296;-67
2021/10/25 05:39:56;;;;;;;58.58;3.00;;;2.40;1.00;;;;;;5070906;28;20267;-65
2021/10/25 05:42:23;;;;;;;58.63;3.08;;;2.40;1.00;;;;;;5071810;28;20205;-64
2021/10/25 05:44:50;;;;;;;58.65;2.88;;;2.40;1.00;;;;;;5071623;28;20225;-67
2021/10/25 05:47:17;;;;;;;58.60;3.00;;;2.40;1.00;;;;;;5071456;28;20295;-66
2021/10/25 05:49:45;;;;;;;58.47;2.80;;;2.40;1.00;;;;;;5071564;28;20221;-67
2021/10/25 05:52:12;;;;;;;58.45;3.00;;;2.40;1.00;;;;;;5071447;28;20208;-67
2021/10/25 05:54:40;;;;;;;58.47;2.90;;;2.40;1.00;;;;;;5071617;28;20208;-67
2021/10/25 05:57:07;;;;;;;58.80;3.20;;;2.40;1.00;;;;;;5071472;28;20204;-65
2021/10/25 05:59:35;;;;;;;58.70;3.45;;;2.40;1.00;;;;;;5071644;28;20256;-66
2021/10/25 06:02:10;;;;;;;58.15;2.90;;;2.40;1.00;;;;;;5071410;28;20205;-65
2021/10/25 06:04:37;;;;;;;58.38;2.80;;;2.40;1.00;;;;;;5071925;28;20278;-66
2021/10/25 06:07:05;;;;;;;58.08;2.70;;;2.40;1.00;;;;;;5071029;28;20652;-66
2021/10/25 06:09:34;;;;;;;58.53;3.15;;;2.40;1.00;;;;;;5071509;28;20675;-65
2021/10/25 06:12:05;;;;;;;58.55;3.10;;;2.40;1.00;;;;;;5071488;28;20330;-66
2021/10/25 06:14:38;;;;;;;58.13;2.90;;;2.40;1.00;;;;;;5071372;28;20209;-65
2021/10/25 06:17:16;;;;;;;58.83;3.58;;;2.50;1.00;;;;;;5071076;28;20296;-66
2021/10/25 06:19:43;;;;;;;61.20;5.05;;;2.50;1.00;;;;;;5071517;28;20257;-67
2021/10/25 06:22:11;;;;;;;58.58;2.88;;;2.50;1.00;;;;;;5071383;28;20209;-66
2021/10/25 06:24:38;;;;;;;58.67;3.20;;;2.50;1.00;;;;;;5071370;28;20236;-67
2021/10/25 06:27:05;;;;;;;58.47;2.90;;;2.50;1.00;;;;;;5071019;28;20205;-66
2021/10/25 06:29:32;;;;;;;58.38;2.80;;;2.50;1.00;;;;;;5071198;28;20225;-66
2021/10/25 06:32:01;;;;;;;58.55;3.00;;;2.60;1.00;;;;;;5071073;28;20288;-66
2021/10/25 06:34:34;;;;;;;58.40;3.10;;;2.60;1.00;;;;;;5071102;28;20216;-67
2021/10/25 06:37:00;;;;;;;58.47;2.60;;;2.60;1.00;;;;;;5070863;28;20232;-66
2021/10/25 06:39:32;;;;;;;58.38;2.95;;;2.70;1.00;;;;;;5071028;28;20793;-65
2021/10/25 06:42:00;;;;;;;58.47;2.72;;;2.80;1.00;;;;;;5071250;28;20209;-65
2021/10/25 06:44:27;;;;;;;59.25;4.57;;;2.80;1.00;;;;;;5070897;28;20312;-66
2021/10/25 06:46:54;;;;;;;58.70;3.20;;;2.80;1.00;;;;;;5070648;28;20235;-67
2021/10/25 06:49:21;;;;;;;58.50;3.00;;;2.80;1.00;;;;;;5070951;28;20312;-66
2021/10/25 06:51:48;;;;;;;58.20;2.95;;;2.80;1.00;;;;;;5073179;28;20244;-65
2021/10/25 06:54:15;;;;;;;58.58;3.10;;;2.90;1.00;;;;;;5074540;28;20284;-66
2021/10/25 06:56:43;;;;;;;58.50;3.00;;;2.90;1.00;;;;;;5074428;28;20284;-66
2021/10/25 06:59:10;;;;;;;58.28;2.80;;;3.00;1.00;;;;;;5074318;28;20307;-65
2021/10/25 07:01:37;;;;;;;58.58;3.33;;;3.10;1.00;;;;;;5074597;28;20255;-66
2021/10/25 07:04:04;;;;;;;58.47;2.90;;;3.10;1.00;;;;;;5074277;28;20307;-67
2021/10/25 07:06:31;;;;;;;58.28;2.90;;;3.20;1.00;;;;;;5073999;28;20201;-67
2021/10/25 07:09:00;;;;;;;58.38;3.00;;;3.30;1.00;;;;;;5074215;28;20750;-65
2021/10/25 07:11:27;;;;;;;58.45;3.03;;;3.40;1.00;;;;;;5074040;28;20205;-66
2021/10/25 07:13:56;;;;;;;59.38;3.33;;;3.40;1.00;;;;;;5074095;28;20205;-65
2021/10/25 07:16:27;;;;;;;58.78;3.63;;;3.40;1.00;;;;;;5073689;28;20220;-68
2021/10/25 07:21:54;;;;;;;58.38;2.92;;;3.50;1.00;;;;;;5056744;28;20196;-66
2021/10/25 07:27:42;;;;;;;58.47;2.92;;;3.60;1.00;;;;;;5073760;28;20200;-68
2021/10/25 08:00:57;;;;;;;58.60;2.90;;;5.60;1.00;;;;;;5073218;28;20266;-66
2021/10/25 08:06:29;;;;;;;59.80;3.70;;;6.10;1.00;;;;;;5073225;28;20563;-67
2021/10/25 08:09:05;;;;;;;58.40;3.08;;;6.30;1.00;;;;;;5073268;28;20205;-67
2021/10/25 08:11:37;;;;;;;59.35;3.25;;;6.50;1.00;;;;;;5073472;28;20205;-66
2021/10/25 08:14:08;;;;;;;58.60;3.10;;;6.60;1.00;;;;;;5073073;28;20271;-67
2021/10/25 08:16:46;;;;;;;58.47;3.25;;;6.80;1.00;;;;;;5072968;28;20212;-66
2021/10/25 08:19:25;;;;;;;58.38;2.90;;;7.10;1.00;;;;;;5072887;28;20316;-67
2021/10/25 08:21:54;;;;;;;58.17;3.00;;;7.40;1.00;;;;;;5073067;28;20211;-66
2021/10/25 08:24:21;;;;;;;58.58;2.90;;;7.60;1.00;;;;;;5072826;28;20259;-66
2021/10/25 08:26:49;;;;;;;58.30;2.95;;;7.80;1.00;;;;;;5072759;28;20237;-66
2021/10/25 08:29:18;;;;;;;58.30;2.85;;;8.00;1.00;;;;;;5072826;28;20233;-66
2021/10/25 08:31:48;;;;;;;59.47;4.85;;;8.30;1.00;;;;;;5072644;28;20305;-66
2021/10/25 08:34:32;;;;;;;58.70;3.42;;;8.50;1.00;;;;;;5072694;28;20206;-67
2021/10/25 08:39:51;;;;;;;58.27;3.00;;;8.90;1.00;;;;;;5072472;28;20447;-67
2021/10/25 08:42:20;;;;;;;58.27;2.87;;;9.20;1.00;;;;;;5072444;28;20550;-66
2021/10/25 08:44:49;;;;;;;58.23;3.00;;;9.40;1.00;;;;;;5072308;28;20902;-66
2021/10/25 08:47:20;;;;;;;58.23;2.83;;;9.40;1.00;;;;;;5071883;28;20456;-66
2021/10/25 08:49:48;;;;;;;58.23;2.70;;;9.50;1.00;;;;;;5072392;28;20521;-67
2021/10/25 08:52:20;;;;;;;58.33;3.00;;;9.60;1.00;;;;;;5072406;28;20445;-67
2021/10/25 08:54:47;;;;;;;58.40;2.80;;;9.60;1.00;;;;;;5072317;28;20450;-66
2021/10/25 08:57:14;;;;;;;58.13;2.80;;;9.70;1.00;;;;;;5071866;28;20510;-67
2021/10/25 08:59:41;;;;;;;58.27;3.10;;;9.70;1.00;;;;;;5071908;28;20468;-67
2021/10/25 09:02:10;;;;;;;58.27;3.00;;;9.80;1.00;;;;;;5072316;28;20444;-66
2021/10/25 09:04:37;;;;;;;58.23;2.80;;;9.90;1.00;;;;;;5072276;28;20486;-67
2021/10/25 09:07:05;;;;;;;58.30;2.80;;;10.00;1.00;;;;;;5071860;28;20450;-67
2021/10/25 09:09:33;;;;;;;58.17;2.80;;;10.10;1.00;;;;;;5072014;28;20552;-68
2021/10/25 09:12:03;;;;;;;58.20;2.90;;;10.20;1.00;;;;;;5072034;28;20445;-67
2021/10/25 09:14:31;;;;;;;58.33;2.80;;;10.30;1.00;;;;;;5071014;28;20584;-67
2021/10/25 09:17:00;;;;;;;58.27;2.73;;;10.40;1.00;;;;;;5071763;28;20546;-67
2021/10/25 09:19:30;;;;;;;58.27;2.90;;;10.40;1.00;;;;;;5072047;28;20897;-66
2021/10/25 09:22:07;;;;;;;58.70;3.43;;;10.50;1.00;;;;;;5071911;28;20455;-67
2021/10/25 09:24:35;;;;;;;58.40;2.90;;;10.50;1.00;;;;;;5071793;28;20518;-67
2021/10/25 09:27:05;;;;;;;57.93;2.60;;;10.60;1.00;;;;;;5071373;28;20494;-66
2021/10/25 09:29:35;;;;;;;58.07;2.80;;;10.70;1.00;;;;;;5072039;28;20857;-66
2021/10/25 09:32:08;;;;;;;58.30;2.90;;;11.00;1.00;;;;;;5071996;28;20772;-66
2021/10/25 09:34:43;;;;;;;58.23;2.63;;;11.20;1.00;;;;;;5071708;28;20981;-66
2021/10/25 09:37:16;;;;;;;58.60;3.00;;;11.50;1.00;;;;;;5071449;28;20825;-67
2021/10/25 09:39:50;;;;;;;58.17;2.80;;;11.90;1.00;;;;;;5071787;28;20471;-68
2021/10/25 09:45:38;;;;;;;58.33;2.70;;;12.70;1.00;;;;;;5072149;28;20474;-66
2021/10/25 09:50:58;;;;;;;58.67;3.07;;;13.60;1.00;;;;;;5071671;28;21058;-66
2021/10/25 09:53:36;;;;;;;60.50;3.33;;;14.60;1.00;;;;;;5071634;28;20452;-67
2021/10/25 09:56:04;;;;;;;57.93;3.10;;;15.70;1.00;;;;;;5071076;28;20484;-66
2021/10/25 09:58:42;;;;;;;58.63;2.90;;;16.80;1.00;;;;;;5071611;28;20532;-66
2021/10/25 10:01:11;;;;;;;58.23;3.00;;;17.50;1.00;;;;;;5071640;28;20504;-68
2021/10/25 10:03:39;;;;;;;58.60;2.70;;;18.30;1.00;;;;;;5071386;28;20960;-67
2021/10/25 10:06:06;;;;;;;57.87;2.47;;;18.80;1.00;;;;;;5071068;28;20569;-67
2021/10/25 10:08:35;;;;;;;58.30;2.80;;;19.10;1.00;;;;;;5071297;28;20443;-67
2021/10/25 10:11:02;;;;;;;58.27;2.50;;;19.40;1.00;;;;;;5071540;28;20490;-68
2021/10/25 10:13:30;;;;;;;58.67;3.07;;;20.30;1.00;;;;;;5071391;28;20460;-64
2021/10/25 10:15:58;;;;;;;58.13;2.47;;;21.00;1.00;;;;;;5070944;28;20477;-64
2021/10/25 10:18:30;;;;;;;58.07;2.30;;;22.00;1.00;;;;;;5071289;28;20508;-67
2021/10/25 10:21:01;;;;;;;58.10;2.40;;;22.90;1.00;;;;;;5071156;28;20463;-65
2021/10/25 10:23:28;;;;;;;58.40;2.40;;;23.30;1.00;;;;;;5071233;28;20954;-66
2021/10/25 10:25:59;;;;;;;58.10;2.40;;;23.10;1.00;;;;;;5073602;28;20475;-64
2021/10/25 10:28:36;;;;;;;57.93;2.37;;;23.40;1.00;;;;;;5074970;28;20827;-65
2021/10/25 10:31:06;;;;;;;57.90;2.40;;;22.90;1.00;;;;;;5074839;28;20502;-64
2021/10/25 10:33:36;;;;;;;59.10;2.93;;;22.50;99.90;;;;;;5074745;28;20801;-65
2021/10/25 10:36:15;;;;;;;57.80;2.37;;;21.80;99.90;;;;;;5074750;28;20485;-65
2021/10/25 10:38:46;;;;;;;60.93;2.40;;;21.20;1.00;;;;;;5074967;28;20441;-65
2021/10/25 10:41:17;;;;;;;57.77;2.17;;;20.90;1.00;;;;;;5074897;28;20443;-65
2021/10/25 10:43:58;;;;;;;57.70;2.20;;;20.70;1.00;;;;;;5074950;28;20899;-66
2021/10/25 10:46:25;;;;;;;58.80;2.40;;;20.40;1.00;;;;;;5074414;28;20480;-65
2021/10/25 10:48:57;;;;;;;58.00;2.40;;;20.30;1.00;;;;;;5074781;28;20494;-65
2021/10/25 10:51:29;;;;;;;58.00;2.20;;;20.30;1.00;;;;;;5074894;28;20480;-64
2021/10/25 10:54:07;;;;;;;58.40;2.40;;;20.10;1.00;;;;;;5074630;28;20463;-65
2021/10/25 10:56:38;;;;;;;57.90;2.70;;;19.90;1.00;;;;;;5074113;28;20546;-65
2021/10/25 10:59:19;;;;;;;58.60;3.17;;;19.90;1.00;;;;;;5074620;28;20483;-65
2021/10/25 11:01:53;;;;;;;57.47;2.20;;;20.40;1.00;;;;;;5074503;28;20510;-66
2021/10/25 11:04:29;;;;;;;57.67;2.10;;;21.00;1.00;;;;;;5074373;28;20860;-65
2021/10/25 11:06:59;;;;;;;57.67;2.33;;;21.90;1.00;;;;;;5074166;28;20449;-67
2021/10/25 11:09:30;;;;;;;57.87;2.20;;;21.90;99.90;;;;;;5074224;28;20987;-66
2021/10/25 11:12:02;;;;;;;57.20;2.30;;;21.20;99.90;;;;;;5074594;28;21106;-66
2021/10/25 11:14:33;;;;;;;59.80;2.30;;;20.90;1.00;;;;;;5074553;28;20465;-66
2021/10/25 11:17:20;;;;;;;58.17;2.37;;;20.90;99.90;;;;;;5074016;28;20834;-66
2021/10/25 11:19:49;;;;;;;57.80;2.40;;;20.90;1.00;;;;;;5074330;28;20522;-66
2021/10/25 11:22:31;;;;;;;57.70;2.57;;;21.30;1.00;;;;;;5074226;28;20991;-66
2021/10/25 11:24:58;;;;;;;57.80;2.10;;;22.30;1.00;;;;;;5073919;28;20479;-65
2021/10/25 11:27:33;;;;;;;57.77;2.40;;;24.20;1.00;;;;;;5073778;28;20526;-67
2021/10/25 11:30:06;;;;;;;58.40;2.87;;;26.40;99.90;;;;;;5074444;28;20471;-67
2021/10/25 11:32:34;;;;;;;57.67;2.07;;;28.20;99.90;;;;;;5074048;28;20503;-64
2021/10/25 11:35:02;;;;;;;57.63;2.33;;;29.50;99.90;;;;;;5073840;28;20439;-64
2021/10/25 11:37:28;;;;;;;58.20;2.43;;;30.80;99.90;;;;;;5072763;28;20505;-64
2021/10/25 11:40:01;;;;;;;58.00;3.13;;;31.90;99.90;;;;;;5073787;28;20560;-65
2021/10/25 11:42:30;;;;;;;57.90;2.20;;;32.70;99.90;;;;;;5073911;28;20473;-64
2021/10/25 11:45:00;;;;;;;57.77;2.77;;;32.90;99.90;;;;;;5073672;28;20833;-65
2021/10/25 11:47:28;;;;;;;57.30;2.00;;;33.30;99.90;;;;;;5073459;28;20539;-66
2021/10/25 11:50:00;;;;;;;57.60;2.53;;;34.20;99.90;;;;;;5073493;28;20553;-65
2021/10/25 11:52:33;;;;;;;57.27;2.10;;;34.70;99.90;;;;;;5073463;28;20459;-65
2021/10/25 11:55:00;;;;;;;58.00;2.40;;;35.10;99.90;;;;;;5073640;28;20453;-65
2021/10/25 11:57:29;;;;;;;57.37;2.20;;;34.90;99.90;;;;;;5073281;28;20883;-65
2021/10/25 11:59:58;;;;;;;57.80;2.67;;;35.00;99.90;;;;;;5073170;28;21034;-65
2021/10/25 12:02:26;;;;;;;57.13;2.10;;;35.40;99.90;;;;;;5073295;28;20454;-65
2021/10/25 12:04:53;;;;;;;57.13;1.80;;;35.90;99.90;;;;;;5073120;28;20970;-65
2021/10/25 12:07:20;;;;;;;56.97;2.10;;;35.90;99.90;;;;;;5072829;28;20534;-65
2021/10/25 12:09:47;;;;;;;57.37;2.10;;;36.20;99.90;;;;;;5073231;28;20510;-65
2021/10/25 12:12:15;;;;;;;57.13;2.00;;;36.50;99.90;;;;;;5073238;28;20486;-65
2021/10/25 12:14:45;;;;;;;57.17;1.97;;;36.70;99.90;;;;;;5072772;28;20460;-65
2021/10/25 12:17:15;;;;;;;57.60;2.00;;;36.90;99.90;;;;;;5072857;28;20459;-65
2021/10/25 12:19:43;;;;;;;57.90;2.60;;;37.00;99.90;;;;;;5073195;28;20463;-65
2021/10/25 12:22:20;;;;;;;57.23;1.80;;;37.40;99.90;;;;;;5073046;28;20530;-65
2021/10/25 12:24:49;;;;;;;57.07;2.10;;;38.30;99.90;;;;;;5072840;28;20451;-67
2021/10/25 12:27:19;;;;;;;57.37;2.07;;;38.50;99.90;;;;;;5072553;28;20534;-66
2021/10/25 12:29:59;;;;;;;57.17;2.13;;;39.10;99.90;;;;;;5072699;28;20469;-66
2021/10/25 12:32:26;;;;;;;57.60;2.30;;;39.60;99.90;;;;;;5073334;28;20515;-66
2021/10/25 12:34:55;;;;;;;57.50;2.10;;;39.90;99.90;;;;;;5072609;28;20461;-65
2021/10/25 12:37:23;;;;;;;57.20;2.00;;;40.00;99.90;;;;;;5072360;28;20486;-65
2021/10/25 12:39:51;;;;;;;56.90;2.10;;;39.50;99.90;;;;;;5072367;28;20550;-65
2021/10/25 12:42:18;;;;;;;57.00;1.90;;;38.50;99.90;;;;;;5072489;28;20479;-67
2021/10/25 12:44:51;;;;;;;56.97;1.93;;;38.60;99.90;;;;;;5072293;28;20899;-66
2021/10/25 12:47:20;;;;;;;57.07;1.83;;;39.00;99.90;;;;;;5072349;28;20592;-65
2021/10/25 12:49:48;;;;;;;57.27;2.13;;;37.50;99.90;;;;;;5072385;28;20474;-65
2021/10/25 12:52:16;;;;;;;57.33;2.03;;;35.20;99.90;;;;;;5072432;28;20542;-65
2021/10/25 12:54:44;;;;;;;57.27;1.87;;;32.80;99.90;;;;;;5072297;28;20459;-65
2021/10/25 12:57:19;;;;;;;57.17;1.97;;;31.00;99.90;;;;;;5072239;28;20459;-66
2021/10/25 12:59:59;;;;;;;58.07;2.17;;;29.80;99.90;;;;;;5072322;28;20549;-68
2021/10/25 13:02:29;;;;;;;57.77;2.20;;;28.70;99.90;;;;;;5072478;28;20447;-65
2021/10/25 13:05:07;;;;;;;58.10;2.53;;;28.20;99.90;;;;;;5072155;28;20475;-65
2021/10/25 13:07:34;;;;;;;57.43;2.20;;;28.10;99.90;;;;;;5071738;28;20927;-65
2021/10/25 13:10:01;;;;;;;58.33;2.23;;;27.90;99.90;;;;;;5071926;28;20550;-65
2021/10/25 13:12:28;;;;;;;57.90;2.47;;;27.80;99.90;;;;;;5071759;28;20935;-65
2021/10/25 13:14:56;;;;;;;58.00;2.40;;;28.00;99.90;;;;;;5071819;28;20544;-66
2021/10/25 13:17:25;;;;;;;57.70;2.10;;;28.40;99.90;;;;;;5071794;28;20448;-65
2021/10/25 13:19:52;;;;;;;57.87;2.30;;;29.80;99.90;;;;;;5071904;28;20505;-66
2021/10/25 13:22:19;;;;;;;57.53;1.90;;;31.90;99.90;;;;;;5071703;28;20442;-67
2021/10/25 13:24:46;;;;;;;58.00;2.97;;;34.20;99.90;;;;;;5071934;28;20451;-66
2021/10/25 13:27:13;;;;;;;57.17;2.00;;;34.70;99.90;;;;;;5071781;28;20535;-66
2021/10/25 13:29:39;;;;;;;57.40;2.50;;;34.00;99.90;;;;;;5071862;28;20491;-66
2021/10/25 13:32:07;;;;;;;58.20;2.10;;;35.30;99.90;;;;;;5071859;28;20443;-66
2021/10/25 13:34:35;;;;;;;57.50;2.20;;;37.70;99.90;;;;;;5072419;28;20455;-66
2021/10/25 13:37:02;;;;;;;57.17;2.00;;;39.70;99.90;;;;;;5071273;28;20479;-66
2021/10/25 13:39:29;;;;;;;57.00;1.80;;;41.20;99.90;;;;;;5071845;28;20463;-66
2021/10/25 13:41:56;;;;;;;57.40;2.00;;;42.20;99.90;;;;;;5071858;28;20805;-65
2021/10/25 13:44:23;;;;;;;56.87;1.70;;;42.50;99.90;;;;;;5071861;28;20447;-66
2021/10/25 13:46:50;;;;;;;56.67;1.70;;;43.20;99.90;;;;;;5071287;28;20447;-66
2021/10/25 13:49:17;;;;;;;56.90;1.90;;;43.80;99.90;;;;;;5071615;28;20474;-66
2021/10/25 13:51:45;;;;;;;57.07;2.00;;;43.60;99.90;;;;;;5071900;28;20443;-66
2021/10/25 13:54:12;;;;;;;58.10;2.37;;;43.80;99.90;;;;;;5071927;28;20448;-67
2021/10/25 13:56:39;;;;;;;56.73;1.83;;;44.50;99.90;;;;;;5071199;28;20537;-66
2021/10/25 13:59:07;;;;;;;57.40;2.63;;;45.10;99.90;;;;;;5071610;28;20528;-67
2021/10/25 14:01:34;;;;;;;56.97;2.07;;;44.80;99.90;;;;;;5075481;28;20458;-66
2021/10/25 14:04:01;;;;;;;56.90;2.47;;;44.20;99.90;;;;;;5075547;28;20537;-66
2021/10/25 14:06:31;;;;;;;56.47;1.90;;;43.90;99.90;;;;;;5075438;28;20443;-66
2021/10/25 14:08:59;;;;;;;56.87;2.10;;;44.40;99.90;;;;;;5075699;28;20443;-66
2021/10/25 14:11:28;;;;;;;57.43;1.90;;;44.80;99.90;;;;;;5075712;28;20449;-66
2021/10/25 14:14:06;;;;;;;57.50;2.33;;;44.70;99.90;;;;;;5075347;28;20463;-66
2021/10/25 14:16:35;;;;;;;56.50;2.00;;;44.20;99.90;;;;;;5074822;28;20554;-66
2021/10/25 14:19:03;;;;;;;56.80;2.00;;;43.80;99.90;;;;;;5075275;28;20458;-66